Time;durP1;ratioP1;P1;durP2;ratioP2;P2;SDS_P1;SDS_P2;PMS_P1;PMS_P2;Temp;Humidity;BMP_temperature;BMP_pressure;BME280_temperature;BME280_humidity;BME280_pressure;Samples;Min_cycle;Max_cycle;Signal;HPM_P1;HPM_P2
2022/07/10 00:01:01;;;;;;;;;6.50;4.75;;;;;22.31;32.11;102183.09;5020824;28;45308;-58
2022/07/10 00:03:26;;;;;;;;;3.00;3.00;;;;;22.26;32.15;102176.19;5021280;28;46960;-58
2022/07/10 00:05:52;;;;;;;;;6.75;3.25;;;;;22.23;32.28;102175.38;5021260;28;45395;-60
2022/07/10 00:08:17;;;;;;;;;5.25;4.25;;;;;22.17;31.98;102172.09;5014245;28;45361;-61
2022/07/10 00:10:42;;;;;;;;;1.00;1.00;;;;;22.16;31.88;102175.69;5021077;28;45440;-60
2022/07/10 00:13:08;;;;;;;;;2.25;2.00;;;;;22.12;32.12;102180.28;5021164;28;45363;-61
2022/07/10 00:15:33;;;;;;;;;4.00;4.00;;;;;22.10;32.21;102183.97;5020879;28;45304;-60
2022/07/10 00:17:58;;;;;;;;;5.75;4.00;;;;;22.06;32.25;102178.75;5021215;28;45534;-60
2022/07/10 00:20:24;;;;;;;;;3.75;3.75;;;;;22.03;32.30;102184.22;5020851;28;45197;-60
2022/07/10 00:22:50;;;;;;;;;2.75;2.75;;;;;22.01;32.03;102183.41;5020950;28;46352;-58
2022/07/10 00:25:15;;;;;;;;;6.75;4.50;;;;;21.98;32.57;102180.00;5020929;28;45257;-58
2022/07/10 00:27:42;;;;;;;;;5.00;5.00;;;;;21.95;32.29;102182.78;5021009;28;45173;-58
2022/07/10 00:30:10;;;;;;;;;5.00;3.25;;;;;21.89;32.74;102181.22;5020544;28;45472;-59
2022/07/10 00:32:36;;;;;;;;;2.00;1.00;;;;;21.88;32.96;102188.38;5020556;28;45482;-58
2022/07/10 00:35:03;;;;;;;;;3.00;3.00;;;;;21.85;33.00;102188.50;5036011;28;45425;-58
2022/07/10 00:37:29;;;;;;;;;3.00;2.25;;;;;21.83;32.54;102185.00;5020941;28;45271;-58
2022/07/10 00:39:54;;;;;;;;;4.00;4.00;;;;;21.81;32.42;102186.00;5020541;28;45660;-59
2022/07/10 00:42:20;;;;;;;;;2.75;2.00;;;;;21.73;32.73;102189.81;5018303;28;46496;-58
2022/07/10 00:44:45;;;;;;;;;3.50;2.75;;;;;21.72;33.02;102195.25;5020359;28;45285;-58
2022/07/10 00:47:11;;;;;;;;;0.25;0.00;;;;;21.69;33.23;102198.03;5020589;28;45426;-58
2022/07/10 00:49:38;;;;;;;;;4.25;3.00;;;;;21.65;33.41;102188.41;5020891;28;45545;-59
2022/07/10 00:52:07;;;;;;;;;4.50;3.25;;;;;21.56;33.02;102176.25;5019408;28;47241;-58
2022/07/10 00:54:34;;;;;;;;;3.75;2.75;;;;;21.56;33.04;102185.13;5020328;28;45408;-59
2022/07/10 00:57:00;;;;;;;;;2.00;2.00;;;;;21.53;33.16;102179.84;5020866;28;45317;-59
2022/07/10 00:59:27;;;;;;;;;3.00;3.00;;;;;21.49;33.79;102186.25;5019938;28;45297;-58
2022/07/10 01:01:53;;;;;;;;;3.75;3.00;;;;;21.46;33.32;102180.16;5035363;28;45979;-59
2022/07/10 01:04:19;;;;;;;;;2.50;2.50;;;;;21.41;33.47;102183.00;5020111;28;45585;-59
2022/07/10 01:06:44;;;;;;;;;4.25;2.00;;;;;21.39;33.31;102184.84;5020659;28;45416;-58
2022/07/10 01:09:09;;;;;;;;;4.00;4.00;;;;;21.36;33.79;102175.16;5014688;28;45549;-59
2022/07/10 01:11:37;;;;;;;;;3.75;3.00;;;;;21.33;34.06;102177.06;5019790;28;45411;-59
2022/07/10 01:14:03;;;;;;;;;2.00;2.00;;;;;21.30;34.10;102169.16;5020000;28;45320;-59
2022/07/10 01:16:29;;;;;;;;;5.75;4.00;;;;;21.24;34.31;102170.25;5020283;28;45458;-59
2022/07/10 01:18:55;;;;;;;;;6.25;4.00;;;;;21.21;34.05;102165.03;5019786;28;45308;-59
2022/07/10 01:21:29;;;;;;;;;4.00;3.00;;;;;21.19;33.84;102174.91;5018828;28;45360;-59
2022/07/10 01:23:55;;;;;;;;;6.00;3.25;;;;;21.16;34.02;102173.22;5019854;28;45236;-59
2022/07/10 01:26:23;;;;;;;;;5.00;4.00;;;;;21.09;33.89;102167.22;5020213;28;45228;-59
2022/07/10 01:28:50;;;;;;;;;2.25;2.25;;;;;21.07;34.10;102173.56;5019812;28;45233;-59
2022/07/10 01:31:17;;;;;;;;;6.00;3.75;;;;;21.04;34.00;102170.97;5019785;28;45325;-59
2022/07/10 01:33:44;;;;;;;;;4.25;2.50;;;;;21.02;34.70;102176.38;5019779;28;45328;-59
2022/07/10 01:36:09;;;;;;;;;3.25;2.75;;;;;21.00;34.49;102175.53;5020036;28;45299;-59
2022/07/10 01:38:35;;;;;;;;;3.25;2.50;;;;;20.97;34.62;102167.66;5035108;28;45247;-59
2022/07/10 01:41:00;;;;;;;;;3.00;3.00;;;;;20.94;34.75;102173.97;5019817;28;46113;-59
2022/07/10 01:43:25;;;;;;;;;2.25;2.25;;;;;20.91;34.16;102168.72;5019246;28;45372;-59
2022/07/10 01:45:51;;;;;;;;;6.00;4.75;;;;;20.89;34.62;102167.03;5019815;28;45731;-59
2022/07/10 01:48:16;;;;;;;;;3.00;3.00;;;;;20.84;34.64;102161.00;5019775;28;45207;-59
2022/07/10 01:50:43;;;;;;;;;3.50;2.25;;;;;20.82;34.71;102165.50;5019661;28;45278;-59
2022/07/10 01:53:08;;;;;;;;;3.25;3.00;;;;;20.78;34.61;102170.09;5035027;28;45300;-59
2022/07/10 01:55:34;;;;;;;;;5.00;5.00;;;;;20.73;35.02;102170.25;5019857;28;45206;-59
2022/07/10 01:57:59;;;;;;;;;3.75;3.75;;;;;20.71;35.09;102172.09;5019660;28;46418;-59
2022/07/10 02:00:25;;;;;;;;;4.25;3.50;;;;;20.71;34.93;102181.91;5019343;28;46158;-59
2022/07/10 02:05:35;;;;;;;;;4.50;3.75;;;;;20.63;35.14;102180.34;5019884;28;45443;-59
2022/07/10 02:08:03;;;;;;;;;3.75;1.75;;;;;20.60;35.36;102187.56;5014113;28;45409;-59
2022/07/10 02:10:28;;;;;;;;;3.25;3.00;;;;;20.56;34.83;102185.94;5018873;28;45487;-59
2022/07/10 02:12:54;;;;;;;;;3.25;3.25;;;;;20.55;35.31;102192.19;5019349;28;45360;-58
2022/07/10 02:15:19;;;;;;;;;3.25;3.25;;;;;20.52;35.08;102189.66;5019465;28;45244;-59
2022/07/10 02:17:44;;;;;;;;;3.50;3.50;;;;;20.50;35.11;102183.47;5019306;28;45209;-59
2022/07/10 02:20:10;;;;;;;;;5.50;4.00;;;;;20.46;35.37;102183.59;5019450;28;45235;-59
2022/07/10 02:22:36;;;;;;;;;2.75;2.00;;;;;20.44;35.51;102184.56;5019319;28;45379;-58
2022/07/10 02:25:01;;;;;;;;;3.25;3.25;;;;;20.42;35.60;102189.06;5019577;28;45288;-58
2022/07/10 02:27:27;;;;;;;;;3.25;3.25;;;;;20.40;35.04;102189.13;5019354;28;45150;-58
2022/07/10 02:29:53;;;;;;;;;3.50;3.50;;;;;20.38;35.25;102187.44;5033605;28;47433;-58
2022/07/10 02:32:18;;;;;;;;;3.25;3.25;;;;;20.36;35.04;102186.59;5021467;28;45183;-58
2022/07/10 02:34:44;;;;;;;;;6.50;5.00;;;;;20.30;35.44;102175.22;5022888;28;45244;-58
2022/07/10 02:37:09;;;;;;;;;2.00;2.00;;;;;20.32;35.35;102179.63;5022649;28;45452;-58
2022/07/10 02:39:35;;;;;;;;;3.75;3.75;;;;;20.29;35.34;102175.25;5022590;28;45425;-58
2022/07/10 02:42:00;;;;;;;;;3.50;3.00;;;;;20.24;35.62;102172.72;5022598;28;45498;-58
2022/07/10 02:44:25;;;;;;;;;5.00;3.00;;;;;20.21;35.36;102169.28;5022719;28;45458;-58
2022/07/10 02:46:50;;;;;;;;;5.00;3.75;;;;;20.21;35.53;102167.47;5022289;28;45512;-58
2022/07/10 02:49:16;;;;;;;;;5.75;3.00;;;;;20.19;35.55;102166.66;5022502;28;47039;-58
2022/07/10 02:51:41;;;;;;;;;5.25;3.25;;;;;20.18;35.70;102164.06;5022107;28;45252;-58
2022/07/10 02:54:07;;;;;;;;;5.00;3.50;;;;;20.16;35.55;102160.56;5022562;28;45328;-58
2022/07/10 02:56:33;;;;;;;;;5.00;5.00;;;;;20.12;35.43;102158.00;5022271;28;45371;-58
2022/07/10 02:58:58;;;;;;;;;3.00;3.00;;;;;20.11;36.07;102156.25;5021567;28;45782;-58
2022/07/10 03:01:24;;;;;;;;;4.75;3.00;;;;;20.09;35.83;102151.88;5021996;28;45486;-59
2022/07/10 03:03:49;;;;;;;;;5.00;5.00;;;;;20.08;35.80;102152.81;5021166;28;45285;-58
2022/07/10 03:06:15;;;;;;;;;3.25;3.25;;;;;20.04;35.78;102152.03;5022167;28;45526;-59
2022/07/10 03:08:41;;;;;;;;;3.75;3.00;;;;;20.00;35.92;102153.03;5016646;28;45277;-58
2022/07/10 03:11:07;;;;;;;;;5.00;5.00;;;;;19.98;35.94;102154.88;5037481;28;45242;-59
2022/07/10 03:13:32;;;;;;;;;3.75;3.75;;;;;19.93;36.33;102146.16;5021981;28;45426;-59
2022/07/10 03:15:57;;;;;;;;;4.25;4.25;;;;;19.91;36.20;102153.31;5036460;28;45242;-59
2022/07/10 03:18:23;;;;;;;;;5.25;2.50;;;;;19.87;36.50;102149.00;5022045;28;45308;-59
2022/07/10 03:20:48;;;;;;;;;3.00;3.00;;;;;19.85;36.07;102153.50;5021824;28;45363;-59
2022/07/10 03:23:14;;;;;;;;;4.00;4.00;;;;;19.80;36.24;102146.50;5022349;28;45216;-59
2022/07/10 03:25:39;;;;;;;;;5.25;3.00;;;;;19.78;36.63;102151.00;5021775;28;45511;-59
2022/07/10 03:28:05;;;;;;;;;3.75;2.50;;;;;19.77;36.74;102153.72;5022169;28;45299;-59
2022/07/10 03:30:30;;;;;;;;;4.50;4.00;;;;;19.73;36.33;102150.25;5021423;28;45348;-59
2022/07/10 03:32:55;;;;;;;;;3.25;3.00;;;;;19.72;36.69;102150.31;5021962;28;45342;-59
2022/07/10 03:35:21;;;;;;;;;4.00;4.00;;;;;19.68;36.60;102148.66;5021723;28;45600;-59
2022/07/10 03:37:46;;;;;;;;;3.50;3.50;;;;;19.65;36.44;102145.16;5021684;28;46224;-59
2022/07/10 03:40:11;;;;;;;;;5.75;5.00;;;;;19.61;36.87;102145.31;5021591;28;45299;-60
2022/07/10 03:42:37;;;;;;;;;4.75;4.75;;;;;19.59;36.52;102141.81;5020785;28;45374;-59
2022/07/10 03:45:02;;;;;;;;;5.25;5.00;;;;;19.56;36.66;102147.22;5021338;28;45330;-59
2022/07/10 03:47:28;;;;;;;;;4.75;4.75;;;;;19.50;36.66;102142.97;5021449;28;47056;-59
2022/07/10 03:49:53;;;;;;;;;5.75;4.25;;;;;19.49;37.14;102147.41;5021423;28;45308;-59
2022/07/10 03:52:19;;;;;;;;;5.00;4.00;;;;;19.45;36.66;102153.75;5021673;28;45505;-58
2022/07/10 03:54:44;;;;;;;;;5.00;5.00;;;;;19.45;36.95;102163.56;5021499;28;45307;-58
2022/07/10 03:59:53;;;;;;;;;6.00;4.50;;;;;19.38;37.00;102151.31;5021118;28;45362;-58
2022/07/10 04:02:18;;;;;;;;;5.00;5.00;;;;;19.37;36.92;102161.13;5021239;28;45418;-59
2022/07/10 04:04:44;;;;;;;;;4.75;3.25;;;;;19.33;36.94;102151.44;5021163;28;45511;-58
2022/07/10 04:07:12;;;;;;;;;4.25;4.25;;;;;19.32;37.03;102155.03;5017894;28;45430;-59
2022/07/10 04:09:37;;;;;;;;;5.00;5.00;;;;;19.29;37.12;102147.97;5019474;28;45292;-58
2022/07/10 04:12:03;;;;;;;;;3.00;3.00;;;;;19.26;37.38;102140.09;5021162;28;45429;-58
2022/07/10 04:14:29;;;;;;;;;4.75;2.50;;;;;19.26;37.19;102144.56;5020950;28;45415;-59
2022/07/10 04:16:54;;;;;;;;;7.00;5.25;;;;;19.21;37.34;102149.16;5021098;28;45509;-59
2022/07/10 04:19:21;;;;;;;;;4.50;4.50;;;;;19.15;37.28;102136.84;5021034;28;45307;-58
2022/07/10 04:21:47;;;;;;;;;4.00;4.00;;;;;19.17;37.16;102151.03;5021195;28;45411;-59
2022/07/10 04:24:12;;;;;;;;;3.00;3.00;;;;;19.15;37.58;102152.84;5020876;28;45316;-58
2022/07/10 04:26:37;;;;;;;;;5.00;4.00;;;;;19.12;37.52;102148.47;5021125;28;45304;-59
2022/07/10 04:29:03;;;;;;;;;5.75;4.00;;;;;19.09;37.28;102153.88;5020656;28;45415;-59
2022/07/10 04:31:28;;;;;;;;;5.25;5.00;;;;;19.07;37.32;102153.06;5020941;28;45564;-59
2022/07/10 04:33:53;;;;;;;;;4.75;3.00;;;;;19.04;37.34;102153.13;5019439;28;45396;-58
2022/07/10 04:36:18;;;;;;;;;4.50;4.50;;;;;19.04;37.42;102165.59;5020751;28;45411;-58
2022/07/10 04:38:44;;;;;;;;;6.00;4.50;;;;;19.00;37.44;102154.13;5020647;28;45363;-58
2022/07/10 04:41:09;;;;;;;;;2.50;2.25;;;;;18.96;37.63;102147.16;5021013;28;45293;-58
2022/07/10 04:43:35;;;;;;;;;4.00;4.00;;;;;18.95;37.90;102150.72;5020355;28;45221;-58
2022/07/10 04:46:00;;;;;;;;;3.00;3.00;;;;;18.93;37.78;102153.44;5020791;28;45269;-58
2022/07/10 04:48:26;;;;;;;;;4.50;4.50;;;;;18.87;37.89;102147.34;5020461;28;45375;-58
2022/07/10 04:50:51;;;;;;;;;3.50;3.50;;;;;18.89;37.68;102149.06;5020607;28;45283;-58
2022/07/10 04:53:17;;;;;;;;;5.00;4.25;;;;;18.90;37.74;102160.59;5020509;28;45240;-58
2022/07/10 04:55:42;;;;;;;;;4.00;3.00;;;;;18.87;37.97;102155.34;5035829;28;45966;-58
2022/07/10 04:58:07;;;;;;;;;5.00;4.75;;;;;18.88;38.08;102154.44;5020472;28;45153;-58
2022/07/10 05:00:33;;;;;;;;;6.25;4.50;;;;;18.87;38.15;102163.31;5020408;28;45403;-58
2022/07/10 05:02:58;;;;;;;;;5.25;5.25;;;;;18.87;38.19;102160.66;5020120;28;45390;-58
2022/07/10 05:05:23;;;;;;;;;3.00;3.00;;;;;18.86;38.22;102150.97;5020316;28;46304;-58
2022/07/10 05:07:49;;;;;;;;;6.75;5.50;;;;;18.86;38.06;102157.13;5014861;28;45220;-58
2022/07/10 05:10:14;;;;;;;;;5.50;4.00;;;;;18.85;38.14;102166.03;5036042;28;45553;-58
2022/07/10 05:12:39;;;;;;;;;6.50;6.25;;;;;18.82;37.98;102152.81;5020072;28;45331;-58
2022/07/10 05:15:05;;;;;;;;;7.25;5.25;;;;;18.81;38.25;102154.59;5035086;28;53931;-58
2022/07/10 05:17:31;;;;;;;;;4.00;4.00;;;;;18.82;38.03;102156.34;5035212;28;45424;-58
2022/07/10 05:19:58;;;;;;;;;1.00;1.00;;;;;18.82;38.27;102159.00;5020376;28;45472;-58
2022/07/10 05:22:24;;;;;;;;;4.00;4.00;;;;;18.82;38.17;102164.34;5020016;28;45366;-58
2022/07/10 05:24:51;;;;;;;;;5.25;4.75;;;;;18.82;38.34;102164.34;5019990;28;47070;-58
2022/07/10 05:27:18;;;;;;;;;6.00;4.50;;;;;18.78;38.56;102162.69;5020027;28;45253;-58
2022/07/10 05:29:44;;;;;;;;;3.00;3.00;;;;;18.81;37.92;102167.03;5020148;28;45288;-58
2022/07/10 05:32:09;;;;;;;;;6.50;5.00;;;;;18.80;38.50;102163.53;5019799;28;45355;-58
2022/07/10 05:34:34;;;;;;;;;3.00;3.00;;;;;18.80;38.32;102162.63;5020155;28;45338;-58
2022/07/10 05:37:00;;;;;;;;;4.00;4.00;;;;;18.80;38.26;102160.84;5019948;28;45395;-58
2022/07/10 05:39:26;;;;;;;;;3.00;3.00;;;;;18.81;38.79;102161.72;5019003;28;45242;-58
2022/07/10 05:41:52;;;;;;;;;3.75;3.75;;;;;18.80;38.57;102155.53;5019876;28;45474;-58
2022/07/10 05:44:19;;;;;;;;;4.50;4.50;;;;;18.81;38.63;102161.72;5018772;28;45391;-58
2022/07/10 05:46:45;;;;;;;;;6.75;4.75;;;;;18.82;38.63;102164.34;5019559;28;45239;-58
2022/07/10 05:49:10;;;;;;;;;3.50;3.50;;;;;18.81;38.69;102162.56;5019798;28;45271;-58
2022/07/10 05:51:36;;;;;;;;;4.50;3.50;;;;;18.83;38.83;102159.91;5019432;28;45549;-58
2022/07/10 05:54:01;;;;;;;;;4.00;4.00;;;;;18.83;38.46;102168.75;5019653;28;46189;-58
2022/07/10 05:56:26;;;;;;;;;4.50;4.25;;;;;18.84;38.89;102162.53;5035002;28;45229;-58
2022/07/10 05:58:52;;;;;;;;;4.25;3.50;;;;;18.86;38.84;102167.78;5019660;28;45204;-58
2022/07/10 06:01:17;;;;;;;;;6.75;5.25;;;;;18.88;38.79;102176.63;5019388;28;45562;-58
2022/07/10 06:03:42;;;;;;;;;5.25;5.25;;;;;18.89;38.91;102175.69;5019510;28;46405;-58
2022/07/10 06:06:08;;;;;;;;;6.50;5.00;;;;;18.91;38.95;102181.03;5020055;28;49516;-58
2022/07/10 06:08:33;;;;;;;;;8.25;5.00;;;;;18.93;38.60;102182.75;5017596;28;45407;-58
2022/07/10 06:10:58;;;;;;;;;4.00;4.00;;;;;18.94;38.99;102175.59;5022882;28;45219;-58
2022/07/10 06:13:24;;;;;;;;;6.00;4.25;;;;;18.97;38.78;102180.88;5022820;28;45513;-58
2022/07/10 06:15:49;;;;;;;;;4.25;3.50;;;;;18.97;38.84;102170.22;5022716;28;49069;-58
2022/07/10 06:18:14;;;;;;;;;4.75;3.50;;;;;19.02;38.99;102184.28;5023255;28;45359;-59
2022/07/10 06:20:40;;;;;;;;;4.75;4.00;;;;;19.04;38.88;102176.25;5021557;28;45608;-58
2022/07/10 06:23:05;;;;;;;;;6.50;4.75;;;;;19.07;39.13;102173.47;5022899;28;45424;-58
2022/07/10 06:25:30;;;;;;;;;5.25;4.00;;;;;19.09;38.86;102172.53;5022722;28;45482;-58
2022/07/10 06:27:56;;;;;;;;;4.00;4.00;;;;;19.10;38.83;102171.63;5023172;28;45461;-58
2022/07/10 06:30:21;;;;;;;;;3.25;3.25;;;;;19.14;39.00;102167.97;5022613;28;45383;-58
2022/07/10 06:32:46;;;;;;;;;5.75;4.00;;;;;19.15;38.90;102158.16;5022534;28;45217;-58
2022/07/10 06:35:12;;;;;;;;;5.00;4.00;;;;;19.17;38.90;102157.22;5022626;28;45312;-58
2022/07/10 06:37:37;;;;;;;;;2.75;2.75;;;;;19.22;38.87;102159.75;5022941;28;45311;-59
2022/07/10 06:40:03;;;;;;;;;6.75;5.25;;;;;19.26;39.34;102149.88;5022703;28;45438;-59
2022/07/10 06:42:29;;;;;;;;;4.75;3.50;;;;;19.28;39.00;102158.69;5022460;28;45332;-58
2022/07/10 06:44:54;;;;;;;;;5.50;4.25;;;;;19.31;38.92;102163.94;5022091;28;45316;-58
2022/07/10 06:50:05;;;;;;;;;6.00;4.00;;;;;19.39;39.02;102159.25;5022421;28;45408;-58
2022/07/10 06:52:33;;;;;;;;;5.75;5.00;;;;;19.42;38.46;102160.97;5020910;28;47458;-58
2022/07/10 06:54:59;;;;;;;;;4.00;3.00;;;;;19.47;38.51;102173.25;5022282;28;45209;-58
2022/07/10 06:57:25;;;;;;;;;6.00;4.00;;;;;19.49;39.10;102167.88;5022502;28;45355;-59
2022/07/10 06:59:51;;;;;;;;;5.00;4.00;;;;;19.53;38.69;102176.66;5021986;28;45294;-59
2022/07/10 07:02:17;;;;;;;;;3.25;3.25;;;;;19.56;39.40;102173.88;5022105;28;45547;-59
2022/07/10 07:04:44;;;;;;;;;4.00;4.00;;;;;19.58;38.88;102174.72;5022176;28;45395;-59
2022/07/10 07:07:09;;;;;;;;;4.75;3.25;;;;;19.62;38.69;102158.59;5019034;28;45431;-58
2022/07/10 07:09:35;;;;;;;;;3.00;3.00;;;;;19.65;38.84;102163.81;5021049;28;45326;-58
2022/07/10 07:12:00;;;;;;;;;2.75;2.75;;;;;19.70;38.53;102168.13;5022033;28;45489;-58
2022/07/10 07:14:25;;;;;;;;;3.50;3.00;;;;;19.71;38.61;102167.22;5021840;28;45292;-59
2022/07/10 07:17:08;;;;;;;;;4.00;4.00;;;;;19.77;38.99;102173.28;5022136;28;45305;-59
2022/07/10 07:25:03;;;;;;;;;3.00;3.00;;;;;19.87;38.40;102170.34;5022021;28;45375;-59
2022/07/10 07:27:28;;;;;;;;;4.00;3.75;;;;;19.92;38.67;102168.41;5021841;28;45430;-59
2022/07/10 07:29:54;;;;;;;;;5.00;4.00;;;;;19.96;38.43;102173.59;5021764;28;45311;-59
2022/07/10 07:32:19;;;;;;;;;3.00;3.00;;;;;20.01;38.23;102172.59;5021648;28;47159;-59
2022/07/10 07:34:44;;;;;;;;;4.50;4.50;;;;;20.02;38.31;102167.19;5021846;28;45398;-59
2022/07/10 07:37:10;;;;;;;;;2.50;2.50;;;;;20.09;38.66;102165.22;5021793;28;45146;-59
2022/07/10 07:39:36;;;;;;;;;3.50;3.00;;;;;20.13;38.28;102162.38;5021894;28;45205;-59
2022/07/10 07:42:02;;;;;;;;;2.00;2.00;;;;;20.17;38.17;102154.31;5021499;28;45275;-59
2022/07/10 07:44:27;;;;;;;;;3.75;3.75;;;;;20.18;38.06;102151.56;5021533;28;45553;-59
2022/07/10 07:46:52;;;;;;;;;3.75;2.50;;;;;20.25;38.48;102146.91;5021544;28;45342;-59
2022/07/10 07:49:18;;;;;;;;;4.75;3.50;;;;;20.29;38.46;102149.44;5021564;28;45166;-59
2022/07/10 07:51:43;;;;;;;;;3.00;2.25;;;;;20.30;38.47;102145.84;5021227;28;45179;-59
2022/07/10 07:54:08;;;;;;;;;3.00;3.00;;;;;20.38;38.36;102145.59;5021636;28;45252;-58
2022/07/10 07:56:34;;;;;;;;;3.25;3.00;;;;;20.42;38.08;102141.88;5020216;28;45314;-59
2022/07/10 07:58:59;;;;;;;;;3.25;2.50;;;;;20.46;38.12;102135.53;5021398;28;45446;-59
2022/07/10 08:01:24;;;;;;;;;3.25;3.25;;;;;20.48;38.35;102127.47;5021115;28;45370;-59
2022/07/10 08:03:50;;;;;;;;;5.00;4.00;;;;;20.55;37.76;102136.13;5021301;28;45394;-59
2022/07/10 08:06:15;;;;;;;;;2.50;2.50;;;;;20.60;38.00;102134.16;5021419;28;45606;-58
2022/07/10 08:08:40;;;;;;;;;3.50;3.00;;;;;20.65;37.54;102134.88;5015915;28;45434;-59
2022/07/10 08:11:06;;;;;;;;;4.50;4.50;;;;;20.70;38.24;102150.75;5020934;28;45595;-59
2022/07/10 08:13:33;;;;;;;;;4.00;3.50;;;;;20.75;38.21;102140.81;5021018;28;45370;-59
2022/07/10 08:15:59;;;;;;;;;2.50;2.50;;;;;20.81;38.05;102145.09;5021146;28;45328;-59
2022/07/10 08:18:24;;;;;;;;;3.25;2.75;;;;;20.86;37.96;102143.97;5021264;28;45284;-58
2022/07/10 08:20:49;;;;;;;;;4.00;2.75;;;;;20.88;37.39;102131.44;5020820;28;46117;-58
2022/07/10 08:23:15;;;;;;;;;2.00;2.00;;;;;20.97;37.65;102134.69;5021182;28;45396;-59
2022/07/10 08:25:40;;;;;;;;;4.00;4.00;;;;;21.02;37.74;102136.28;5021053;28;45443;-58
2022/07/10 08:28:05;;;;;;;;;2.75;2.75;;;;;21.07;37.97;102130.78;5021123;28;45141;-59
2022/07/10 08:30:32;;;;;;;;;3.25;3.25;;;;;21.13;37.10;102135.03;5035231;28;47516;-59
2022/07/10 08:32:57;;;;;;;;;3.50;3.50;;;;;21.19;37.33;102132.13;5020948;28;45242;-59
2022/07/10 08:35:22;;;;;;;;;2.25;2.25;;;;;21.21;37.57;102128.47;5020807;28;45850;-59
2022/07/10 08:37:48;;;;;;;;;3.25;2.75;;;;;21.31;37.11;102142.38;5021015;28;45137;-59
2022/07/10 08:40:15;;;;;;;;;4.00;4.00;;;;;21.36;37.11;102131.50;5020579;28;45258;-59
2022/07/10 08:42:43;;;;;;;;;3.00;2.50;;;;;21.42;37.25;102132.16;5020827;28;45495;-58
2022/07/10 08:45:09;;;;;;;;;3.50;3.50;;;;;21.49;37.40;102126.56;5020416;28;45327;-59
2022/07/10 08:47:35;;;;;;;;;6.00;5.00;;;;;21.54;37.09;102120.09;5020007;28;45574;-59
2022/07/10 08:50:01;;;;;;;;;2.50;2.50;;;;;21.61;37.37;102117.22;5019317;28;46857;-59
2022/07/10 08:52:37;;;;;;;;;4.00;3.00;;;;;21.65;37.47;102121.53;5020309;28;45381;-59
2022/07/10 08:55:04;;;;;;;;;3.50;3.00;;;;;21.72;37.28;102128.38;5020597;28;45273;-58
2022/07/10 08:57:31;;;;;;;;;3.00;3.00;;;;;21.78;36.66;102113.88;5019309;28;45207;-59
2022/07/10 08:59:57;;;;;;;;;3.25;2.75;;;;;21.83;37.07;102120.78;5019936;28;46025;-59
2022/07/10 09:02:22;;;;;;;;;6.25;2.75;;;;;21.88;37.04;102121.47;5020105;28;45335;-60
2022/07/10 09:04:47;;;;;;;;;5.00;3.00;;;;;21.95;36.78;102116.75;5020298;28;45467;-59
2022/07/10 09:07:13;;;;;;;;;3.50;3.00;;;;;22.02;36.71;102109.34;5016384;28;45533;-59
2022/07/10 09:09:54;;;;;;;;;3.25;3.25;;;;;22.07;37.00;102102.00;5019238;28;45460;-58
2022/07/10 09:12:23;;;;;;;;;2.25;1.75;;;;;22.12;36.82;102094.66;5020084;28;45394;-58
2022/07/10 09:14:50;;;;;;;;;3.25;3.25;;;;;22.18;36.48;102101.56;5018776;28;45401;-59
2022/07/10 09:17:16;;;;;;;;;3.00;3.00;;;;;22.27;36.82;102095.81;5019917;28;45181;-59
2022/07/10 09:19:42;;;;;;;;;4.25;2.25;;;;;22.32;36.65;102085.78;5020164;28;45984;-59
2022/07/10 09:22:09;;;;;;;;;4.50;4.50;;;;;22.40;36.53;102094.41;5018751;28;45289;-59
2022/07/10 09:24:43;;;;;;;;;7.00;5.00;;;;;22.46;36.28;102087.03;5020306;28;45348;-58
2022/07/10 09:27:10;;;;;;;;;10.00;7.75;;;;;22.53;36.19;102083.16;5019974;28;45478;-59
2022/07/10 09:29:54;;;;;;;;;4.00;4.00;;;;;22.61;35.88;102081.00;5019753;28;46272;-58
2022/07/10 09:32:20;;;;;;;;;7.00;5.50;;;;;22.67;35.95;102080.72;5019659;28;45640;-59
2022/07/10 09:34:46;;;;;;;;;7.75;7.00;;;;;22.77;36.20;102085.69;5020325;28;45363;-59
2022/07/10 09:37:30;;;;;;;;;5.00;4.25;;;;;22.84;35.94;102081.78;5019879;28;45395;-59
2022/07/10 09:40:02;;;;;;;;;6.00;5.75;;;;;22.87;35.74;102070.94;5019631;28;45410;-59
2022/07/10 09:42:39;;;;;;;;;4.00;4.00;;;;;22.98;35.69;102076.69;5019244;28;45256;-59
2022/07/10 09:45:11;;;;;;;;;3.25;3.25;;;;;23.06;35.61;102084.38;5035129;28;45730;-59
2022/07/10 09:47:41;;;;;;;;;3.50;3.25;;;;;23.14;35.28;102070.59;5019538;28;45182;-59
2022/07/10 09:50:29;;;;;;;;;4.75;3.50;;;;;23.23;35.22;102083.59;5018356;28;46657;-59
2022/07/10 09:52:57;;;;;;;;;4.75;4.75;;;;;23.31;35.45;102086.81;5019562;28;46619;-59
2022/07/10 09:55:26;;;;;;;;;4.75;4.75;;;;;23.41;35.17;102086.38;5019904;28;45296;-59
2022/07/10 09:58:09;;;;;;;;;5.00;5.00;;;;;23.51;35.37;102085.00;5019512;28;45447;-59
2022/07/10 10:00:37;;;;;;;;;5.25;5.25;;;;;23.58;35.43;102081.06;5019435;28;46115;-59
2022/07/10 10:03:05;;;;;;;;;3.50;3.50;;;;;23.69;35.14;102085.94;5017917;28;45360;-59
2022/07/10 10:05:52;;;;;;;;;5.00;4.00;;;;;23.77;34.58;102072.13;5019577;28;45248;-59
2022/07/10 10:08:23;;;;;;;;;3.75;2.75;;;;;23.86;35.04;102079.72;5029154;28;45653;-59
2022/07/10 10:10:49;;;;;;;;;5.25;5.00;;;;;23.94;34.99;102079.41;5019070;28;46396;-59
2022/07/10 10:13:21;;;;;;;;;4.00;4.00;;;;;24.04;34.95;102077.09;5019083;28;45287;-59
2022/07/10 10:15:49;;;;;;;;;7.00;6.00;;;;;24.13;34.69;102074.81;5019355;28;45386;-59
2022/07/10 10:18:20;;;;;;;;;4.50;2.75;;;;;24.19;34.61;102070.97;5019446;28;45374;-59
2022/07/10 10:20:47;;;;;;;;;3.00;3.00;;;;;24.31;34.71;102077.53;5019009;28;45374;-59
2022/07/10 10:23:17;;;;;;;;;3.00;3.00;;;;;24.39;34.76;102071.75;5019246;28;45328;-59
2022/07/10 10:25:43;;;;;;;;;3.00;3.00;;;;;24.49;34.62;102059.59;5019216;28;45248;-59
2022/07/10 10:28:10;;;;;;;;;4.25;4.00;;;;;24.59;34.48;102068.91;5018976;28;45232;-59
2022/07/10 10:30:44;;;;;;;;;6.25;5.00;;;;;24.68;34.20;102048.78;5017761;28;46644;-59
2022/07/10 10:33:31;;;;;;;;;2.00;2.00;;;;;24.82;34.13;102056.97;5018102;28;45246;-58
2022/07/10 10:35:57;;;;;;;;;5.00;3.25;;;;;24.93;34.48;102053.69;5019266;28;45306;-58
2022/07/10 10:38:22;;;;;;;;;4.75;4.00;;;;;25.06;34.27;102040.44;5019113;28;45401;-58
2022/07/10 10:40:48;;;;;;;;;4.00;4.00;;;;;25.18;34.27;102041.56;5019056;28;45308;-58
2022/07/10 10:43:20;;;;;;;;;3.00;3.00;;;;;25.36;34.18;102052.25;5018755;28;45315;-58
2022/07/10 10:45:49;;;;;;;;;5.75;5.00;;;;;25.52;33.57;102038.84;5019337;28;45319;-58
2022/07/10 10:48:17;;;;;;;;;6.00;4.00;;;;;25.70;34.16;102034.22;5017604;28;45443;-58
2022/07/10 10:50:45;;;;;;;;;3.25;3.00;;;;;25.96;34.41;102032.69;5018708;28;46239;-58
2022/07/10 10:53:27;;;;;;;;;3.25;3.25;;;;;26.39;34.75;102029.25;5021031;28;45312;-58
2022/07/10 10:56:07;;;;;;;;;3.00;3.00;;;;;26.96;34.89;102033.00;5022548;28;45261;-58
2022/07/10 10:58:37;;;;;;;;;3.00;1.00;;;;;27.62;35.14;102027.88;5022121;28;45314;-59
2022/07/10 11:01:24;;;;;;;;;2.00;2.00;;;;;28.30;35.57;102026.00;5021995;28;45239;-58
2022/07/10 11:04:04;;;;;;;;;2.00;2.00;;;;;29.17;35.58;102012.66;5020917;28;45299;-58
2022/07/10 11:06:44;;;;;;;;;3.75;3.00;;;;;29.93;35.44;102021.44;5022267;28;45193;-58
2022/07/10 11:09:26;;;;;;;;;1.00;1.00;;;;;30.77;35.66;102025.81;5017307;28;45225;-58
2022/07/10 11:12:08;;;;;;;;;1.00;1.00;;;;;31.55;35.50;102015.84;5021888;28;47297;-58
2022/07/10 11:14:36;;;;;;;;;4.00;4.00;;;;;32.32;35.24;102011.16;5021665;28;45737;-59
2022/07/10 11:17:02;;;;;;;;;2.00;2.00;;;;;33.09;35.07;102006.19;5022037;28;45324;-58
2022/07/10 11:19:29;;;;;;;;;2.00;2.00;;;;;33.89;35.09;102011.63;5021997;28;45466;-58
2022/07/10 11:22:10;;;;;;;;;3.50;2.50;;;;;34.78;34.61;102002.19;5020534;28;46336;-58
2022/07/10 11:25:01;;;;;;;;;1.25;1.25;;;;;35.67;34.14;102013.44;5037243;28;45700;-59
2022/07/10 11:28:08;;;;;;;;;3.50;3.00;;;;;36.54;33.67;102010.88;5021957;28;45314;-58
2022/07/10 11:30:54;;;;;;;;;5.75;4.00;;;;;37.43;32.84;101999.53;5021186;28;45315;-58
2022/07/10 11:33:21;;;;;;;;;2.00;2.00;;;;;38.07;32.64;102015.31;5021549;28;46201;-58
2022/07/10 11:35:48;;;;;;;;;5.75;5.75;;;;;38.64;32.17;102002.47;5021989;28;45234;-59
2022/07/10 11:38:22;;;;;;;;;1.50;1.50;;;;;39.18;32.05;101990.72;5021750;28;45192;-59